Time;durP1;ratioP1;P1;durP2;ratioP2;P2;SDS_P1;SDS_P2;PMS_P1;PMS_P2;Temp;Humidity;BMP_temperature;BMP_pressure;BME280_temperature;BME280_humidity;BME280_pressure;Samples;Min_cycle;Max_cycle;Signal;HPM_P1;HPM_P2
2023/07/20 00:00:12;;;;;;;6.82;5.95;;;22.10;99.90;;;;;;5072688;28;20230;-75
2023/07/20 00:02:40;;;;;;;8.23;5.25;;;22.00;99.90;;;;;;5072782;28;20304;-74
2023/07/20 00:05:07;;;;;;;8.95;5.47;;;22.00;99.90;;;;;;5060418;28;20712;-75
2023/07/20 00:07:34;;;;;;;7.32;6.00;;;22.00;99.90;;;;;;5072567;28;20202;-74
2023/07/20 00:10:01;;;;;;;6.88;5.13;;;22.10;99.90;;;;;;5071338;28;20685;-75
2023/07/20 00:12:28;;;;;;;9.00;5.90;;;22.00;99.90;;;;;;5071631;28;20263;-74
2023/07/20 00:14:55;;;;;;;11.88;6.57;;;22.00;99.90;;;;;;5071792;28;20206;-75
2023/07/20 00:17:22;;;;;;;6.57;4.85;;;21.90;99.90;;;;;;5072222;28;20292;-74
2023/07/20 00:19:50;;;;;;;9.35;6.18;;;22.00;99.90;;;;;;5057164;28;20249;-75
2023/07/20 00:22:17;;;;;;;7.18;4.85;;;22.00;99.90;;;;;;5069082;28;20252;-75
2023/07/20 00:24:44;;;;;;;9.48;4.53;;;22.00;99.90;;;;;;5071613;28;20269;-75
2023/07/20 00:27:11;;;;;;;6.25;4.78;;;21.90;99.90;;;;;;5072392;28;20238;-75
2023/07/20 00:29:38;;;;;;;8.30;5.20;;;22.00;99.90;;;;;;5061713;28;20241;-75
2023/07/20 00:32:06;;;;;;;5.85;4.57;;;21.90;99.90;;;;;;5071539;28;20214;-75
2023/07/20 00:34:33;;;;;;;5.97;5.25;;;21.90;99.90;;;;;;5057561;28;20254;-75
2023/07/20 00:37:01;;;;;;;6.13;4.20;;;21.80;99.90;;;;;;5071663;28;20249;-75
2023/07/20 00:39:28;;;;;;;5.88;5.38;;;21.70;99.90;;;;;;5071526;28;20206;-73
2023/07/20 00:41:55;;;;;;;6.43;4.78;;;21.80;99.90;;;;;;5071373;28;20244;-75
2023/07/20 00:44:22;;;;;;;8.23;5.18;;;21.80;99.90;;;;;;5071179;28;20611;-74
2023/07/20 00:46:49;;;;;;;6.55;5.53;;;21.80;99.90;;;;;;5071648;28;20248;-75
2023/07/20 00:49:16;;;;;;;6.97;4.90;;;21.70;99.90;;;;;;5065043;28;20290;-75
2023/07/20 00:51:44;;;;;;;7.38;5.47;;;21.60;99.90;;;;;;5071746;28;20271;-74
2023/07/20 00:54:12;;;;;;;8.45;5.13;;;21.60;99.90;;;;;;5072000;28;20248;-74
2023/07/20 00:56:40;;;;;;;6.50;5.18;;;21.60;99.90;;;;;;5071462;28;20701;-75
2023/07/20 00:59:08;;;;;;;9.00;6.00;;;21.50;99.90;;;;;;5071443;28;20242;-74
2023/07/20 01:01:34;;;;;;;5.85;5.25;;;21.50;99.90;;;;;;5071120;28;20236;-74
2023/07/20 01:04:01;;;;;;;7.30;4.72;;;21.40;99.90;;;;;;5069164;28;20717;-75
2023/07/20 01:06:37;;;;;;;6.38;5.57;;;21.50;99.90;;;;;;5071257;28;20206;-74
2023/07/20 01:09:14;;;;;;;6.60;5.78;;;21.50;99.90;;;;;;5062571;28;20232;-75
2023/07/20 01:11:49;;;;;;;6.13;4.97;;;21.40;99.90;;;;;;5066830;28;20255;-75
2023/07/20 01:14:17;;;;;;;5.75;4.53;;;21.40;99.90;;;;;;5070582;28;20202;-75
2023/07/20 01:16:45;;;;;;;6.32;4.80;;;21.40;99.90;;;;;;5056572;28;20288;-75
2023/07/20 01:19:14;;;;;;;5.45;4.85;;;21.40;99.90;;;;;;5057185;28;20211;-74
2023/07/20 01:21:46;;;;;;;6.28;5.00;;;21.50;99.90;;;;;;5071169;28;20213;-74
2023/07/20 01:24:47;;;;;;;6.97;5.80;;;21.30;99.90;;;;;;5070603;28;20728;-74
2023/07/20 01:27:40;;;;;;;9.57;5.20;;;21.20;99.90;;;;;;5054504;28;20264;-75
2023/07/20 01:30:34;;;;;;;6.70;4.60;;;21.20;99.90;;;;;;5067502;28;20238;-75
2023/07/20 01:33:03;;;;;;;6.65;4.78;;;21.10;99.90;;;;;;5070259;28;20694;-75
2023/07/20 01:35:32;;;;;;;7.00;4.90;;;21.20;99.90;;;;;;5071041;28;20245;-75
2023/07/20 01:38:00;;;;;;;5.50;5.00;;;21.30;99.90;;;;;;5068690;28;20210;-74
2023/07/20 01:40:28;;;;;;;7.70;4.70;;;21.20;99.90;;;;;;5070673;28;20292;-75
2023/07/20 01:42:55;;;;;;;9.20;5.03;;;21.30;99.90;;;;;;5066881;28;20235;-74
2023/07/20 01:45:22;;;;;;;5.18;4.63;;;21.20;99.90;;;;;;5060163;28;20265;-75
2023/07/20 01:47:49;;;;;;;6.80;5.20;;;21.30;99.90;;;;;;5056684;28;20659;-75
2023/07/20 01:50:17;;;;;;;7.47;4.65;;;21.30;99.90;;;;;;5070581;28;20252;-74
2023/07/20 01:52:44;;;;;;;6.50;5.88;;;21.30;99.90;;;;;;5070111;28;20244;-74
2023/07/20 01:55:11;;;;;;;6.82;4.72;;;21.20;99.90;;;;;;5070506;28;20681;-74
2023/07/20 01:57:38;;;;;;;5.93;3.97;;;21.10;99.90;;;;;;5071024;28;20294;-74
2023/07/20 02:00:06;;;;;;;5.30;4.80;;;21.10;99.90;;;;;;5069928;28;20705;-74
2023/07/20 02:02:33;;;;;;;5.90;4.65;;;21.00;99.90;;;;;;5070684;28;20297;-74
2023/07/20 02:05:00;;;;;;;5.93;4.68;;;21.10;99.90;;;;;;5064478;28;20261;-75
2023/07/20 02:07:28;;;;;;;4.38;3.97;;;21.00;99.90;;;;;;5070236;28;20256;-75
2023/07/20 02:09:55;;;;;;;5.97;4.70;;;21.00;99.90;;;;;;5068887;28;20245;-75
2023/07/20 02:12:22;;;;;;;5.32;4.93;;;21.00;99.90;;;;;;5070496;28;20245;-75
2023/07/20 02:14:51;;;;;;;6.22;4.63;;;21.00;99.90;;;;;;5070252;28;20351;-74
2023/07/20 02:17:17;;;;;;;5.47;4.68;;;20.90;99.90;;;;;;5065215;28;20203;-74
2023/07/20 02:19:45;;;;;;;5.07;4.53;;;20.80;99.90;;;;;;5068172;28;20241;-74
2023/07/20 02:22:12;;;;;;;6.82;4.85;;;20.90;99.90;;;;;;5070202;28;20233;-74
2023/07/20 02:24:40;;;;;;;5.43;4.65;;;20.90;99.90;;;;;;5063675;28;20241;-74
2023/07/20 02:27:08;;;;;;;6.43;3.80;;;20.80;99.90;;;;;;5069888;28;20225;-76
2023/07/20 02:29:35;;;;;;;6.63;4.35;;;20.80;99.90;;;;;;5070292;28;20673;-75
2023/07/20 02:32:02;;;;;;;8.35;5.40;;;20.70;99.90;;;;;;5070161;28;20674;-75
2023/07/20 02:34:29;;;;;;;6.20;4.50;;;20.70;99.90;;;;;;5070454;28;20249;-75
2023/07/20 02:36:57;;;;;;;5.88;4.38;;;20.70;99.90;;;;;;5073663;28;20705;-75
2023/07/20 02:39:24;;;;;;;8.85;4.90;;;20.80;99.90;;;;;;5074063;28;20273;-74
2023/07/20 02:41:53;;;;;;;4.32;3.85;;;20.80;99.90;;;;;;5071875;28;20666;-75
2023/07/20 02:44:20;;;;;;;7.20;5.70;;;20.80;99.90;;;;;;5073518;28;20241;-75
2023/07/20 02:46:49;;;;;;;7.50;4.47;;;20.80;99.90;;;;;;5073655;28;20259;-75
2023/07/20 02:49:16;;;;;;;5.13;4.68;;;20.70;99.90;;;;;;5073326;28;20289;-75
2023/07/20 02:51:43;;;;;;;6.80;4.82;;;20.70;99.90;;;;;;5073887;28;20206;-74
2023/07/20 02:54:10;;;;;;;5.85;4.35;;;20.70;99.90;;;;;;5073653;28;20255;-74
2023/07/20 02:56:37;;;;;;;5.32;4.45;;;20.80;99.90;;;;;;5073937;28;20206;-74
2023/07/20 02:59:05;;;;;;;4.75;3.97;;;20.80;99.90;;;;;;5073351;28;20292;-75
2023/07/20 03:01:32;;;;;;;8.95;4.95;;;20.80;99.90;;;;;;5073632;28;20206;-74
2023/07/20 03:03:59;;;;;;;5.93;4.50;;;20.70;99.90;;;;;;5073056;28;20242;-74
2023/07/20 03:06:26;;;;;;;7.00;4.63;;;20.60;99.90;;;;;;5073180;28;20277;-74
2023/07/20 03:08:53;;;;;;;5.22;4.43;;;20.70;99.90;;;;;;5073115;28;20241;-75
2023/07/20 03:11:21;;;;;;;7.53;4.88;;;20.60;99.90;;;;;;5073460;28;20245;-74
2023/07/20 03:13:48;;;;;;;5.45;4.25;;;20.50;99.90;;;;;;5066853;28;20203;-74
2023/07/20 03:16:19;;;;;;;5.38;4.85;;;20.50;99.90;;;;;;5066341;28;20241;-75
2023/07/20 03:18:47;;;;;;;6.93;4.78;;;20.50;99.90;;;;;;5058704;28;20688;-75
2023/07/20 03:21:14;;;;;;;7.05;5.00;;;20.60;99.90;;;;;;5073355;28;20256;-74
2023/07/20 03:23:41;;;;;;;6.00;5.32;;;20.60;99.90;;;;;;5072991;28;20248;-74
2023/07/20 03:26:09;;;;;;;4.03;3.55;;;20.50;99.90;;;;;;5073154;28;20273;-75
2023/07/20 03:28:36;;;;;;;4.28;3.95;;;20.50;99.90;;;;;;5072916;28;20684;-74
2023/07/20 03:31:03;;;;;;;7.50;5.60;;;20.40;99.90;;;;;;5072857;28;20301;-75
2023/07/20 03:33:32;;;;;;;5.25;4.75;;;20.40;99.90;;;;;;5072815;28;20667;-75
2023/07/20 03:35:59;;;;;;;6.30;4.35;;;20.40;99.90;;;;;;5072638;28;20267;-74
2023/07/20 03:38:27;;;;;;;7.93;4.90;;;20.30;99.90;;;;;;5063679;28;20242;-74
2023/07/20 03:40:55;;;;;;;4.72;4.18;;;20.30;99.90;;;;;;5070010;28;20289;-75
2023/07/20 03:43:22;;;;;;;5.63;4.43;;;20.40;99.90;;;;;;5072919;28;20249;-74
2023/07/20 03:45:50;;;;;;;4.75;4.30;;;20.40;99.90;;;;;;5069779;28;20269;-74
2023/07/20 03:48:17;;;;;;;4.85;3.88;;;20.30;99.90;;;;;;5072617;28;20252;-75
2023/07/20 03:50:48;;;;;;;4.40;3.75;;;20.20;99.90;;;;;;5072499;28;20237;-74
2023/07/20 03:53:15;;;;;;;4.97;4.47;;;20.10;99.90;;;;;;5072756;28;20516;-74
2023/07/20 03:55:46;;;;;;;5.00;3.53;;;20.10;99.90;;;;;;5072511;28;20340;-74
2023/07/20 03:58:13;;;;;;;4.93;4.43;;;20.20;99.90;;;;;;5072357;28;20206;-74
2023/07/20 04:00:40;;;;;;;5.25;4.40;;;20.20;99.90;;;;;;5073189;28;20248;-75
2023/07/20 04:03:07;;;;;;;5.43;4.93;;;20.20;99.90;;;;;;5071898;28;20285;-74
2023/07/20 04:05:34;;;;;;;8.27;4.03;;;20.20;99.90;;;;;;5070590;28;20276;-74
2023/07/20 04:08:02;;;;;;;7.82;4.90;;;20.20;99.90;;;;;;5068672;28;20288;-74
2023/07/20 04:10:29;;;;;;;4.28;3.88;;;20.20;99.90;;;;;;5072343;28;20210;-74
2023/07/20 04:12:56;;;;;;;4.03;3.55;;;20.20;99.90;;;;;;5071773;28;20665;-75
2023/07/20 04:15:23;;;;;;;4.65;3.50;;;20.10;99.90;;;;;;5072598;28;20238;-74
2023/07/20 04:17:50;;;;;;;3.60;3.30;;;20.10;99.90;;;;;;5062232;28;20246;-74
2023/07/20 04:20:17;;;;;;;6.55;3.22;;;20.10;99.90;;;;;;5067455;28;20238;-74
2023/07/20 04:22:44;;;;;;;4.03;3.53;;;20.10;99.90;;;;;;5071893;28;20259;-74
2023/07/20 04:25:13;;;;;;;3.83;3.45;;;20.00;99.90;;;;;;5072027;28;20257;-74
2023/07/20 04:27:40;;;;;;;3.35;3.05;;;20.00;99.90;;;;;;5072681;28;20302;-75
2023/07/20 04:30:09;;;;;;;3.78;3.28;;;19.90;99.90;;;;;;5071684;28;20245;-74
2023/07/20 04:32:35;;;;;;;4.03;3.10;;;20.00;99.90;;;;;;5071452;28;20617;-75
2023/07/20 04:35:06;;;;;;;4.75;3.78;;;19.90;99.90;;;;;;5070226;28;20260;-74
2023/07/20 04:37:33;;;;;;;5.07;3.08;;;19.90;99.90;;;;;;5069439;28;20242;-74
2023/07/20 04:40:00;;;;;;;4.60;2.85;;;20.10;99.90;;;;;;5061443;28;20293;-75
2023/07/20 04:42:28;;;;;;;4.05;3.50;;;19.90;99.90;;;;;;5071423;28;20250;-75
2023/07/20 04:44:55;;;;;;;4.88;3.55;;;19.90;99.90;;;;;;5071286;28;20293;-74
2023/07/20 04:47:22;;;;;;;7.10;3.85;;;20.10;99.90;;;;;;5071485;28;20245;-74
2023/07/20 04:49:49;;;;;;;3.47;3.05;;;20.20;99.90;;;;;;5071290;28;20248;-75
2023/07/20 04:52:16;;;;;;;5.20;3.90;;;20.10;99.90;;;;;;5071432;28;20201;-75
2023/07/20 04:54:43;;;;;;;4.50;3.65;;;20.10;99.90;;;;;;5071131;28;20248;-74
2023/07/20 04:57:12;;;;;;;6.10;4.18;;;20.10;99.90;;;;;;5070843;28;20241;-74
2023/07/20 04:59:41;;;;;;;5.93;3.47;;;20.10;99.90;;;;;;5071361;28;20233;-73
2023/07/20 05:02:07;;;;;;;6.88;5.72;;;20.20;99.90;;;;;;5071103;28;20233;-74
2023/07/20 05:04:34;;;;;;;5.30;4.80;;;20.20;99.90;;;;;;5070916;28;20703;-74
2023/07/20 05:07:01;;;;;;;5.28;4.60;;;20.20;99.90;;;;;;5061251;28;20292;-74
2023/07/20 05:09:28;;;;;;;4.95;4.13;;;20.20;99.90;;;;;;5071432;28;20232;-74
2023/07/20 05:11:55;;;;;;;6.00;4.55;;;20.40;99.90;;;;;;5070958;28;20245;-74
2023/07/20 05:14:22;;;;;;;5.05;4.55;;;20.40;99.90;;;;;;5070979;28;20713;-74
2023/07/20 05:16:50;;;;;;;7.72;4.80;;;20.30;99.90;;;;;;5069482;28;20237;-75
2023/07/20 05:19:17;;;;;;;5.50;4.45;;;20.40;99.90;;;;;;5058410;28;20738;-75
2023/07/20 05:21:44;;;;;;;4.78;4.35;;;20.40;99.90;;;;;;5070665;28;20261;-76
2023/07/20 05:24:11;;;;;;;5.72;5.13;;;20.40;99.90;;;;;;5071399;28;20234;-75
2023/07/20 05:26:38;;;;;;;8.27;3.92;;;20.40;99.90;;;;;;5071348;28;20269;-75
2023/07/20 05:29:04;;;;;;;7.93;4.90;;;20.40;99.90;;;;;;5065114;28;20261;-75
2023/07/20 05:31:32;;;;;;;6.32;3.92;;;20.40;99.90;;;;;;5060728;28;20780;-75
2023/07/20 05:34:00;;;;;;;5.20;4.45;;;20.50;99.90;;;;;;5070090;28;20306;-75
2023/07/20 05:36:27;;;;;;;6.55;4.07;;;20.60;99.90;;;;;;5065148;28;20241;-75
2023/07/20 05:38:54;;;;;;;6.88;4.93;;;20.60;99.90;;;;;;5070168;28;20711;-75
2023/07/20 05:41:22;;;;;;;4.63;4.22;;;20.60;99.90;;;;;;5070747;28;20240;-75
2023/07/20 05:43:49;;;;;;;6.68;5.72;;;20.60;99.90;;;;;;5070086;28;20206;-75
2023/07/20 05:46:16;;;;;;;6.50;5.38;;;20.40;99.90;;;;;;5068476;28;20819;-75
2023/07/20 05:48:43;;;;;;;5.78;4.88;;;20.50;99.90;;;;;;5070585;28;20287;-75
2023/07/20 05:51:11;;;;;;;5.18;4.47;;;20.60;99.90;;;;;;5070263;28;20271;-75
2023/07/20 05:53:38;;;;;;;6.75;4.30;;;20.60;99.90;;;;;;5070941;28;20229;-75
2023/07/20 05:56:05;;;;;;;5.30;4.80;;;20.70;99.90;;;;;;5070147;28;20202;-75
2023/07/20 05:58:32;;;;;;;7.05;5.00;;;20.70;99.90;;;;;;5070890;28;20241;-75
2023/07/20 06:00:59;;;;;;;6.45;4.90;;;20.80;99.90;;;;;;5067915;28;20250;-75
2023/07/20 06:03:26;;;;;;;6.32;3.75;;;20.80;99.90;;;;;;5070545;28;20226;-75
2023/07/20 06:05:58;;;;;;;6.68;5.20;;;20.70;99.90;;;;;;5069040;28;20717;-75
2023/07/20 06:08:27;;;;;;;9.57;5.07;;;20.70;99.90;;;;;;5056222;28;20206;-75
2023/07/20 06:10:53;;;;;;;6.20;4.10;;;20.80;99.90;;;;;;5069427;28;20249;-75
2023/07/20 06:13:20;;;;;;;5.50;3.63;;;20.80;99.90;;;;;;5067997;28;20648;-75
2023/07/20 06:15:47;;;;;;;6.03;3.35;;;20.90;99.90;;;;;;5070245;28;20252;-75
2023/07/20 06:18:14;;;;;;;4.47;3.10;;;21.00;99.90;;;;;;5057498;28;20202;-75
2023/07/20 06:20:41;;;;;;;4.00;3.60;;;21.10;99.90;;;;;;5069503;28;20224;-75
2023/07/20 06:23:08;;;;;;;6.78;2.85;;;21.20;99.90;;;;;;5059853;28;20211;-75
2023/07/20 06:25:36;;;;;;;3.75;3.40;;;21.10;99.90;;;;;;5067485;28;20238;-75
2023/07/20 06:28:05;;;;;;;2.60;1.92;;;21.10;99.90;;;;;;5069499;28;20788;-75
2023/07/20 06:30:34;;;;;;;6.18;2.92;;;21.10;99.90;;;;;;5066414;28;20216;-75
2023/07/20 06:33:01;;;;;;;2.25;2.05;;;21.20;99.90;;;;;;5066023;28;20214;-75
2023/07/20 06:35:28;;;;;;;2.30;2.05;;;21.20;99.90;;;;;;5068239;28;20233;-75
2023/07/20 06:37:55;;;;;;;3.33;2.35;;;21.20;99.90;;;;;;5056661;28;20238;-74
2023/07/20 06:40:22;;;;;;;1.90;1.65;;;21.30;99.90;;;;;;5069971;28;20238;-76
2023/07/20 06:42:50;;;;;;;2.15;1.95;;;21.40;99.90;;;;;;5069052;28;20238;-74
2023/07/20 06:45:17;;;;;;;2.10;1.90;;;21.40;99.90;;;;;;5069481;28;20248;-78
2023/07/20 06:47:44;;;;;;;4.43;2.47;;;21.50;99.90;;;;;;5068448;28;20234;-73
2023/07/20 06:50:12;;;;;;;3.30;2.08;;;21.60;99.90;;;;;;5060282;28;20238;-75
2023/07/20 06:52:39;;;;;;;2.33;2.13;;;21.70;99.90;;;;;;5067697;28;20241;-77
2023/07/20 06:55:07;;;;;;;3.25;2.53;;;21.70;99.90;;;;;;5060302;28;20198;-77
2023/07/20 06:57:35;;;;;;;3.83;2.60;;;21.70;99.90;;;;;;5062533;28;20250;-76
2023/07/20 07:00:04;;;;;;;4.05;2.45;;;21.80;99.90;;;;;;5055527;28;20581;-77
2023/07/20 07:02:31;;;;;;;2.50;2.15;;;21.90;99.90;;;;;;5069078;28;20704;-76
2023/07/20 07:04:57;;;;;;;2.88;2.38;;;21.90;99.90;;;;;;5050406;28;20253;-77
2023/07/20 07:07:24;;;;;;;2.88;2.42;;;22.00;99.90;;;;;;5065004;28;20262;-76
2023/07/20 07:09:51;;;;;;;2.88;2.53;;;21.90;99.90;;;;;;5060746;28;20234;-76
2023/07/20 07:12:18;;;;;;;4.22;2.67;;;22.00;99.90;;;;;;5066206;28;20233;-76
2023/07/20 07:14:45;;;;;;;4.07;2.90;;;22.20;99.90;;;;;;5063862;28;20234;-77
2023/07/20 07:17:14;;;;;;;3.67;2.70;;;22.20;99.90;;;;;;5061492;28;20245;-75
2023/07/20 07:19:42;;;;;;;3.08;2.47;;;22.20;99.90;;;;;;5057243;28;20203;-77
2023/07/20 07:22:09;;;;;;;3.10;2.58;;;22.30;99.90;;;;;;5053740;28;20217;-77
2023/07/20 07:24:36;;;;;;;4.97;2.97;;;22.40;99.90;;;;;;5054131;28;20717;-77
2023/07/20 07:27:03;;;;;;;3.33;3.00;;;22.40;99.90;;;;;;5056592;28;20267;-77
2023/07/20 07:29:30;;;;;;;2.35;2.13;;;22.60;99.90;;;;;;5055393;28;20210;-74
2023/07/20 07:31:58;;;;;;;2.55;2.35;;;22.80;99.90;;;;;;5058634;28;20347;-75
2023/07/20 07:34:26;;;;;;;3.70;1.98;;;23.00;99.90;;;;;;5066688;28;20690;-76
2023/07/20 07:36:53;;;;;;;3.08;2.42;;;23.10;99.90;;;;;;5064917;28;20210;-74
2023/07/20 07:39:20;;;;;;;5.55;2.50;;;22.90;99.90;;;;;;5070790;28;20260;-79
2023/07/20 07:41:47;;;;;;;3.97;2.40;;;22.60;99.90;;;;;;5061154;28;20267;-77
2023/07/20 07:44:14;;;;;;;2.88;1.92;;;22.60;99.90;;;;;;5072146;28;20287;-78
2023/07/20 07:46:41;;;;;;;3.22;2.20;;;23.00;99.90;;;;;;5060565;28;20261;-77
2023/07/20 07:49:08;;;;;;;2.70;2.50;;;23.20;99.90;;;;;;5060164;28;20210;-75
2023/07/20 07:51:36;;;;;;;3.08;1.77;;;23.00;99.90;;;;;;5053275;28;20695;-77
2023/07/20 07:54:03;;;;;;;3.40;2.85;;;23.20;99.90;;;;;;5062175;28;20505;-77
2023/07/20 07:56:30;;;;;;;2.72;2.38;;;23.30;99.90;;;;;;5054372;28;20242;-76
2023/07/20 07:58:57;;;;;;;7.88;2.83;;;23.50;99.90;;;;;;5054218;28;20246;-74
2023/07/20 08:01:25;;;;;;;3.50;2.30;;;23.90;99.90;;;;;;5055326;28;20256;-75
2023/07/20 08:03:52;;;;;;;4.05;2.88;;;24.20;99.90;;;;;;5054391;28;20667;-74
2023/07/20 08:06:19;;;;;;;2.97;2.47;;;24.50;99.90;;;;;;5058500;28;20257;-73
2023/07/20 08:08:47;;;;;;;3.10;2.20;;;24.50;99.90;;;;;;5055733;28;20238;-72
2023/07/20 08:11:14;;;;;;;2.60;2.40;;;24.30;99.90;;;;;;5059660;28;20241;-77
2023/07/20 08:13:41;;;;;;;5.22;3.60;;;24.10;99.90;;;;;;5056949;28;20245;-74
2023/07/20 08:16:08;;;;;;;2.50;2.30;;;24.20;99.90;;;;;;5060082;28;20285;-74
2023/07/20 08:18:35;;;;;;;4.40;2.20;;;24.20;99.90;;;;;;5066184;28;20705;-77
2023/07/20 08:21:02;;;;;;;3.95;2.10;;;24.20;99.90;;;;;;5063984;28;20770;-74
2023/07/20 08:23:29;;;;;;;3.15;2.30;;;24.10;99.90;;;;;;5053932;28;20217;-75
2023/07/20 08:25:58;;;;;;;2.20;2.00;;;24.10;99.90;;;;;;5053274;28;20257;-76
2023/07/20 08:28:26;;;;;;;3.90;2.38;;;25.10;99.90;;;;;;5054582;28;20246;-73
2023/07/20 08:30:53;;;;;;;2.88;2.05;;;26.40;99.90;;;;;;5054996;28;20203;-76
2023/07/20 08:33:20;;;;;;;3.67;2.08;;;25.80;99.90;;;;;;5054404;28;20265;-76
2023/07/20 08:35:48;;;;;;;2.53;2.33;;;25.40;99.90;;;;;;5058695;28;20203;-75
2023/07/20 08:38:15;;;;;;;4.63;2.35;;;25.20;99.90;;;;;;5070065;28;20685;-76
2023/07/20 08:40:44;;;;;;;4.32;1.85;;;25.10;99.90;;;;;;5061075;28;20669;-75
2023/07/20 08:43:14;;;;;;;4.28;2.20;;;25.10;99.90;;;;;;5060908;28;20206;-75
2023/07/20 08:45:42;;;;;;;2.35;1.85;;;25.10;99.90;;;;;;5065720;28;20234;-76
2023/07/20 08:48:09;;;;;;;2.88;1.75;;;25.20;99.90;;;;;;5063427;28;20233;-75
2023/07/20 08:50:37;;;;;;;2.40;1.67;;;25.30;99.90;;;;;;5070674;28;20590;-76
2023/07/20 08:53:03;;;;;;;2.08;1.88;;;25.40;99.90;;;;;;5057677;28;20631;-76
2023/07/20 08:55:35;;;;;;;2.47;2.20;;;25.60;99.90;;;;;;5051591;28;20230;-76
2023/07/20 08:58:03;;;;;;;2.42;1.90;;;26.00;99.90;;;;;;5051017;28;20214;-76
2023/07/20 09:00:31;;;;;;;2.53;1.88;;;26.60;99.90;;;;;;5051444;28;20230;-76
2023/07/20 09:03:00;;;;;;;1.80;1.70;;;26.30;99.90;;;;;;5051049;28;20203;-76
2023/07/20 09:05:27;;;;;;;2.00;1.70;;;26.10;99.90;;;;;;5051133;28;20211;-75
2023/07/20 09:07:54;;;;;;;3.53;1.98;;;26.60;99.90;;;;;;5054577;28;20715;-76
2023/07/20 09:10:22;;;;;;;1.73;1.63;;;27.30;99.90;;;;;;5056825;28;20678;-75
2023/07/20 09:12:49;;;;;;;6.47;1.83;;;27.00;99.90;;;;;;5063457;28;20225;-75
2023/07/20 09:15:17;;;;;;;3.38;1.55;;;26.50;99.90;;;;;;5056164;28;20207;-75
2023/07/20 09:17:49;;;;;;;3.53;1.85;;;26.70;99.90;;;;;;5051987;28;20285;-75
2023/07/20 09:20:17;;;;;;;3.40;1.73;;;26.80;99.90;;;;;;5065101;28;20692;-76
2023/07/20 09:22:44;;;;;;;3.40;2.10;;;26.70;99.90;;;;;;5056833;28;20595;-75
2023/07/20 09:25:14;;;;;;;4.10;1.70;;;27.30;99.90;;;;;;5066191;28;20233;-74
2023/07/20 09:27:41;;;;;;;3.42;2.10;;;27.60;99.90;;;;;;5051410;28;20253;-75
2023/07/20 09:30:11;;;;;;;2.03;1.35;;;28.80;99.90;;;;;;5061921;28;20286;-77
2023/07/20 09:32:43;;;;;;;1.95;1.42;;;29.00;99.90;;;;;;5054205;28;20256;-77
2023/07/20 09:35:15;;;;;;;1.92;1.60;;;31.10;99.90;;;;;;5064718;28;20202;-76
2023/07/20 09:37:48;;;;;;;2.47;2.10;;;33.40;99.90;;;;;;5064861;28;20579;-73
2023/07/20 09:40:18;;;;;;;1.42;1.30;;;34.50;99.90;;;;;;5051565;28;20210;-76
2023/07/20 09:42:45;;;;;;;4.72;1.83;;;35.90;99.90;;;;;;5055440;28;20704;-76
2023/07/20 09:45:12;;;;;;;4.22;2.38;;;38.20;99.90;;;;;;5052467;28;20296;-76
2023/07/20 09:47:40;;;;;;;4.50;2.08;;;39.90;99.90;;;;;;5056850;28;20260;-76
2023/07/20 09:50:10;;;;;;;2.33;2.00;;;40.90;99.90;;;;;;5060597;28;20292;-75
2023/07/20 09:52:41;;;;;;;2.58;1.67;;;41.50;99.90;;;;;;5065539;28;20662;-76
2023/07/20 09:55:09;;;;;;;1.80;1.70;;;43.40;99.90;;;;;;5053103;28;20625;-75
2023/07/20 09:57:36;;;;;;;1.80;1.38;;;43.20;99.90;;;;;;5067446;28;20220;-74
2023/07/20 10:00:11;;;;;;;5.68;2.03;;;42.20;99.90;;;;;;5054895;28;20229;-75
2023/07/20 10:02:43;;;;;;;2.47;2.13;;;43.00;99.90;;;;;;5062356;28;20197;-76
2023/07/20 10:05:12;;;;;;;2.42;1.20;;;44.50;99.90;;;;;;5064859;28;20205;-73
2023/07/20 10:07:46;;;;;;;1.90;1.73;;;45.50;99.90;;;;;;5069312;28;20288;-80
2023/07/20 10:10:16;;;;;;;3.20;1.25;;;46.30;99.90;;;;;;5069901;28;20213;-74
2023/07/20 10:12:44;;;;;;;5.57;1.85;;;46.80;99.90;;;;;;5054631;28;20250;-76
2023/07/20 10:15:18;;;;;;;2.70;1.67;;;46.00;99.90;;;;;;5052587;28;20241;-81
2023/07/20 10:17:57;;;;;;;3.78;1.80;;;46.70;99.90;;;;;;5052485;28;20202;-75
2023/07/20 10:20:24;;;;;;;2.15;1.67;;;46.80;99.90;;;;;;5064254;28;20225;-75
2023/07/20 10:22:56;;;;;;;1.83;1.30;;;46.70;99.90;;;;;;5060030;28;20252;-75
2023/07/20 10:25:24;;;;;;;2.88;1.55;;;46.90;99.90;;;;;;5055296;28;20244;-75
2023/07/20 10:27:51;;;;;;;1.73;1.42;;;47.20;99.90;;;;;;5053356;28;20268;-76
2023/07/20 10:30:20;;;;;;;5.05;2.08;;;46.60;99.90;;;;;;5050057;28;20234;-76
2023/07/20 10:32:47;;;;;;;3.63;1.52;;;45.80;99.90;;;;;;5049718;28;20210;-76
2023/07/20 10:35:15;;;;;;;2.38;1.90;;;38.70;99.90;;;;;;5049968;28;20245;-76
2023/07/20 10:37:55;;;;;;;3.20;2.05;;;33.30;99.90;;;;;;5049934;28;20731;-75
2023/07/20 10:40:26;;;;;;;3.92;2.10;;;31.70;99.90;;;;;;5049840;28;20684;-76
2023/07/20 10:42:58;;;;;;;2.10;1.90;;;30.20;99.90;;;;;;5049843;28;20206;-76
2023/07/20 10:45:38;;;;;;;2.05;1.83;;;29.80;99.90;;;;;;5050124;28;20702;-76
2023/07/20 10:48:06;;;;;;;3.30;1.75;;;29.90;99.90;;;;;;5049495;28;20269;-75
2023/07/20 10:50:34;;;;;;;2.90;1.75;;;29.80;99.90;;;;;;5049623;28;20217;-76
2023/07/20 10:53:16;;;;;;;4.85;2.17;;;29.40;99.90;;;;;;5049580;28;20205;-76
2023/07/20 10:55:46;;;;;;;1.88;1.70;;;29.10;99.90;;;;;;5050976;28;20245;-75
2023/07/20 10:58:14;;;;;;;2.67;1.85;;;28.90;99.90;;;;;;5062066;28;20701;-75
2023/07/20 11:00:59;;;;;;;2.42;2.22;;;28.70;99.90;;;;;;5069534;28;20292;-76
2023/07/20 11:03:30;;;;;;;2.40;2.20;;;28.90;99.90;;;;;;5064513;28;20201;-76
2023/07/20 11:05:58;;;;;;;4.65;2.10;;;29.10;99.90;;;;;;5068552;28;20213;-75
2023/07/20 11:08:43;;;;;;;6.75;2.95;;;28.80;99.90;;;;;;5053571;28;20233;-75
2023/07/20 11:11:22;;;;;;;2.70;2.45;;;28.60;99.90;;;;;;5053664;28;20664;-76
2023/07/20 11:13:59;;;;;;;2.90;2.17;;;29.00;99.90;;;;;;5053268;28;20234;-75
2023/07/20 11:16:40;;;;;;;4.45;2.45;;;28.50;99.90;;;;;;5060639;28;20631;-75
2023/07/20 11:19:18;;;;;;;2.90;2.42;;;28.70;99.90;;;;;;5070242;28;20237;-77
2023/07/20 11:21:47;;;;;;;3.13;2.55;;;28.50;99.90;;;;;;5059670;28;20246;-76
2023/07/20 11:24:15;;;;;;;3.75;1.90;;;28.90;99.90;;;;;;5059685;28;20288;-74
2023/07/20 11:26:46;;;;;;;2.25;2.05;;;28.90;99.90;;;;;;5066846;28;20248;-76
2023/07/20 11:29:13;;;;;;;3.95;2.75;;;28.70;99.90;;;;;;5063206;28;20258;-75
2023/07/20 11:31:41;;;;;;;2.55;2.33;;;28.60;99.90;;;;;;5069482;28;20245;-76
2023/07/20 11:34:11;;;;;;;2.85;2.33;;;28.60;99.90;;;;;;5062755;28;20288;-76
2023/07/20 11:36:38;;;;;;;2.50;2.30;;;28.40;99.90;;;;;;5070282;28;20745;-76
2023/07/20 11:39:07;;;;;;;3.08;2.40;;;28.70;99.90;;;;;;5056448;28;20218;-76
2023/07/20 11:41:36;;;;;;;5.45;2.63;;;28.60;99.90;;;;;;5059389;28;20213;-77
2023/07/20 11:44:03;;;;;;;5.13;2.60;;;28.90;99.90;;;;;;5068902;28;20635;-76
2023/07/20 11:46:30;;;;;;;2.60;2.40;;;28.90;99.90;;;;;;5070837;28;20238;-76
2023/07/20 11:48:59;;;;;;;3.67;2.10;;;29.10;99.90;;;;;;5071189;28;20317;-77
2023/07/20 11:51:27;;;;;;;2.30;2.10;;;29.40;99.90;;;;;;5071080;28;20206;-77
2023/07/20 11:53:54;;;;;;;3.00;2.42;;;29.30;99.90;;;;;;5064477;28;20704;-77
2023/07/20 11:56:21;;;;;;;3.03;2.83;;;29.40;99.90;;;;;;5061706;28;20291;-76
2023/07/20 11:58:49;;;;;;;3.15;2.13;;;29.50;99.90;;;;;;5058190;28;20240;-77
2023/07/20 12:01:18;;;;;;;3.42;2.42;;;29.60;99.90;;;;;;5064408;28;20309;-75
2023/07/20 12:03:45;;;;;;;2.00;1.90;;;29.30;99.90;;;;;;5067639;28;20237;-76
2023/07/20 12:06:12;;;;;;;4.30;2.60;;;29.40;99.90;;;;;;5070456;28;20209;-75
2023/07/20 12:08:40;;;;;;;2.63;2.33;;;29.30;99.90;;;;;;5063203;28;20262;-77
2023/07/20 12:11:08;;;;;;;2.10;1.90;;;28.90;99.90;;;;;;5063646;28;20206;-78
2023/07/20 12:13:38;;;;;;;3.55;2.35;;;29.10;99.90;;;;;;5054962;28;20606;-77
2023/07/20 12:16:17;;;;;;;3.80;2.00;;;29.10;99.90;;;;;;5063557;28;20689;-77
2023/07/20 12:18:45;;;;;;;2.42;2.22;;;29.20;99.90;;;;;;5054763;28;20264;-77
2023/07/20 12:21:12;;;;;;;2.08;1.98;;;29.20;99.90;;;;;;5072727;28;20229;-77
2023/07/20 12:23:40;;;;;;;2.25;2.05;;;29.40;99.90;;;;;;5072527;28;20202;-77
2023/07/20 12:26:09;;;;;;;3.78;2.00;;;29.50;99.90;;;;;;5072004;28;20202;-78
2023/07/20 12:28:41;;;;;;;6.13;2.83;;;29.30;99.90;;;;;;5069175;28;20325;-75
2023/07/20 12:31:09;;;;;;;5.95;2.60;;;29.20;99.90;;;;;;5056573;28;20199;-76
2023/07/20 12:33:38;;;;;;;4.38;2.38;;;29.20;99.90;;;;;;5062941;28;20699;-77
2023/07/20 12:36:06;;;;;;;2.40;2.10;;;29.30;99.90;;;;;;5064934;28;20211;-76
2023/07/20 12:38:33;;;;;;;2.83;2.35;;;29.40;99.90;;;;;;5069016;28;20302;-76
2023/07/20 12:41:02;;;;;;;2.22;2.03;;;29.50;99.90;;;;;;5066571;28;20199;-77
2023/07/20 12:43:29;;;;;;;2.67;2.08;;;29.70;99.90;;;;;;5069708;28;20317;-75
2023/07/20 12:45:56;;;;;;;3.75;1.90;;;29.70;99.90;;;;;;5054432;28;20207;-78
2023/07/20 12:48:23;;;;;;;3.13;2.35;;;29.60;99.90;;;;;;5053329;28;20254;-73
2023/07/20 12:50:52;;;;;;;4.38;2.97;;;29.20;99.90;;;;;;5052518;28;20233;-75
2023/07/20 12:53:19;;;;;;;4.15;2.47;;;29.10;99.90;;;;;;5055853;28;20210;-76